AirNav   Air Wisconsin pilot careers
 
 985 users online  

1J9 Fort Walton Beach Airport
Navarre, Florida, USA

GOING TO NAVARRE?


FAA INFORMATION EFFECTIVE 26 APRIL 2018

Location

FAA Identifier: 1J9
Lat/Long: 30-24-22.7000N / 086-49-45.1000W
30-24.378333N / 086-49.751667W
30.4063056 / -86.8291944
(estimated)
Elevation: 22 ft. / 6.7 m (surveyed)
Variation: 01E (1985)
From city: 2 miles E of NAVARRE, FL
Time zone: UTC -5 (UTC -6 during Standard Time)
Zip code: 32566

Airport Operations

Airport use: Open to the public
Activation date: 05/1969
Control tower: no
ARTCC: JACKSONVILLE CENTER
FSS: GAINESVILLE FLIGHT SERVICE STATION
NOTAMs facility: GNV (NOTAM-D service available)
Attendance: 1000-DUSK
Wind indicator: yes
Segmented circle: no

Airport Communications

CTAF/UNICOM: 122.7
WX ASOS at DTS (19 nm E): PHONE 850-654-7128
WX ASOS at PNS (19 nm W): PHONE 850-436-4799

Nearby radio navigation aids

VOR radial/distance  VOR name  Freq  Var
CEWr194/26.4CRESTVIEW VORTAC115.9003E
NUNr098/(26.5)SAUFLEY VOR108.8001E

 
NDB name  Hdg/Dist  Freq  Var  ID
PICKENS098/18.232602WPKZ .--. -.- --..

Airport Services

Airframe service: NONE
Powerplant service: NONE
Bottled oxygen: NONE
Bulk oxygen: NONE

Runway Information

Runway 18/36

Dimensions: 2100 x 65 ft. / 640 x 20 m
Surface: turf, in poor condition
RWY 18/36 BARE SPOTS SOFT & SANDY SOUTH OF RWYS MID POINT.
Gradient: N
Operational restrictions: ALL TKOFS RY 18; ALL LNDGS RY 36.
RUNWAY 18  RUNWAY 36
Latitude: 30-24.551792N30-24.205292N
Longitude: 086-49.750332W086-49.754368W
Elevation: 22.0 ft.2.0 ft.
Gradient: 1.0% UP
Traffic pattern: leftleft
Runway heading: 180 magnetic, 181 true000 magnetic, 001 true
Obstructions: 40 ft. tree, 280 ft. from runway, 85 ft. left of centerline, 7:1 slope to clear
RY 18 20:1 APPROACH TO THE DSPLCD THLD.
6 ft. brush, 170 ft. from runway, 40 ft. right of centerline, 32:1 slope to clear
BRUSH IN PRIMARY SFC & TRANSITION ZONES FY 36 +/- 100 FT FROM CNTRLN. ACFT PARKED 80 FT FROM CNTRLN.

Airport Ownership and Management from official FAA records

Ownership: Privately-owned
Owner: BOOMER AVIATION INC.
P.O. BOX 1075
FORT WALTON, FL 32549
Phone 850-244-1313
CONTACT PERSON; SANDY WILLIAMS, 850-244-1313
Manager: SANDY WILLIAMS
P.O. BOX 1075, P.O. BOX
FT WALTON BEACH, FL 32549
Phone (850) 244-1313

Airport Operational Statistics

Aircraft based on the field: 8
Single engine airplanes: 8
    
Aircraft operations: avg 22/day *
91% local general aviation
9% transient general aviation
* for 12-month period ending 15 March 2017

Additional Remarks

RY 18/36 SLOPES TO 3 FT ELEVATION AT SOUTH END.
BANNER TOWING.
RY 18/36 MARKED WITH WHITE CONES.
ARPT CLSD TO HELICOPTERS MORE THAN 2500 LBS.

Instrument Procedures

There are no published instrument procedures at 1J9.

Some nearby airports with instrument procedures:

KHRT - Hurlburt Field Airport (7 nm E)
2R4 - Peter Prince Field Airport (16 nm NW)
KVPS - Eglin Air Force Base/Destin-Fort Walton Beach Airport (16 nm E)
KDTS - Destin Executive Airport (19 nm E)
KPNS - Pensacola International Airport (19 nm W)
KNDZ - Whiting Field Naval Air Station South (20 nm NW)
 
Loc | Ops | Rwys | IFR | FBO | Links
Com | Nav | Svcs | Stats | Notes

AirNav Hotels Sweepstakes
 
Area around 1J9 (Fort Walton Beach Airport)
 
Road maps at: MapQuest Bing Google
 
Aerial photo
WARNING: Photo may not be current or correct
Aerial photo of 1J9 (Fort Walton Beach Airport)
Photo by Scott Jackson - PhotosFlorida.com
Photo taken 04-Oct-2007
looking north

Do you have a better or more recent aerial photo of Fort Walton Beach Airport that you would like to share? If so, please send us your photo.

 
Sectional chart

 
Airport distance calculator
Flying to Fort Walton Beach Airport? Find the distance to fly.

From to 1J9

Sunrise and sunset
Times for 26-Apr-2018
 Local
(UTC-5)
 Zulu
(UTC)
Morning civil twilight05:4410:44
Sunrise06:1011:10
Sunset19:2100:21
Evening civil twilight19:4600:46

Current date and time
Zulu (UTC)  26-Apr-2018 12:40:36
Local (UTC-5)  26-Apr-2018 07:40:36
 
METAR
KHRT 
8nm E 
261158Z 20010KT 10SM FEW080 SCT180 BKN250 20/16 A2988 RMK SLP120 T02020160 $
2R4 
16nm NW 
SuperAWOS
261215Z AUTO 00000KT 17/15 A2987
KVPS 
17nm E 
261155Z 19007KT 10SM FEW017 FEW080 BKN250 19/15 A2988 RMK AO2A SLP124 T01930152 10193 20135 53004 $
KDTS 
19nm E 
261153Z VRB04KT 10SM CLR 22/15 A2989 RMK AO2 SLP119 T02170150 10217 20172 53004 $
KPNS 
19nm W 
261153Z 19009KT 10SM CLR 20/16 A2988 RMK AO2 SLP120 T02000161 10200 20167 53004
TAF
KHRT 
8nm E 
260900Z 2609/2715 18006KT 9999 FEW250 QNH2984INS BECMG 2614/2615 23010G15KT 9999 BKN030 BKN080 QNH2980INS TEMPO 2618/2621 23015G25KT 8000 -SHRA BECMG 2623/2624 32006KT 9999 FEW030 QNH2980INS TX25/2621Z TN13/2611Z
KVPS 
17nm E 
260900Z 2609/2715 VRB06KT 9999 FEW250 QNH2986INS WND 22009KT AFT 2612 BECMG 2614/2615 22010G15KT 9999 SCT025 BKN080 BKN250 QNH2984INS BECMG 2616/2617 25015G20KT 9999 SCT020 OVC080 QNH2987INS TEMPO 2617/2621 26015G25KT 8000 -SHRA BR OVC020 BECMG 2620/2621 25012KT 9999 NSW SCT020 QNH2983INS BECMG 2702/2703 31006KT 9999 FEW020 QNH2986INS BECMG 2711/2712 33009KT 9999 BKN020 QNH2992INS TX23/2618Z TN14/2609Z
KPNS 
19nm W 
261125Z 2612/2712 19006KT P6SM FEW012 BKN250 FM261500 25011KT P6SM VCSH BKN025 BKN060 TEMPO 2615/2618 6SM SHRA BKN030 FM261900 28012KT P6SM SCT025 SCT250 FM270100 31005KT P6SM SKC
NOTAMs
Click for the latest NOTAMs
NOTAMs are issued by the DoD/FAA and will open in a separate window not controlled by AirNav.

 

 
 

Would you like to see your business listed on this page?

 If your business provides an interesting product or service to pilots, flight crews, aircraft, or users of the Fort Walton Beach Airport, you should consider listing it here.  To start the listing process, click on the button below
 
Add a business
 

Other Pages about Fort Walton Beach Airport

Update a link
 
Copyright © AirNav, LLC. All rights reserved. Privacy Policy  Contact